createdAt,value
2019-04-04T00:02:17.129Z,10.07
2019-04-04T00:04:46.780Z,10.04
2019-04-04T00:07:15.546Z,10.19
2019-04-04T00:09:44.262Z,10.52
2019-04-04T00:12:12.978Z,10.38
2019-04-04T00:14:44.259Z,10.13
2019-04-04T00:17:13.139Z,10.52
2019-04-04T00:19:41.850Z,10.41
2019-04-04T00:22:10.601Z,10.30
2019-04-04T00:24:39.927Z,10.13
2019-04-04T00:27:08.706Z,10.13
2019-04-04T00:29:38.453Z,9.96
2019-04-04T00:32:07.161Z,9.77
2019-04-04T00:34:35.876Z,9.70
2019-04-04T00:37:05.250Z,9.72
2019-04-04T00:39:34.120Z,9.54
2019-04-04T00:42:02.832Z,9.83
2019-04-04T00:44:31.574Z,9.71
2019-04-04T00:47:01.816Z,9.65
2019-04-04T00:49:30.689Z,9.83
2019-04-04T00:51:59.459Z,9.77
2019-04-04T00:54:28.272Z,9.66
2019-04-04T00:56:57.237Z,9.78
2019-04-04T00:59:27.452Z,9.57
2019-04-04T01:01:57.001Z,9.54
2019-04-04T01:04:26.460Z,9.71
2019-04-04T01:06:55.141Z,9.61
2019-04-04T01:09:23.852Z,9.62
2019-04-04T01:11:52.568Z,9.43
2019-04-04T01:14:22.337Z,9.13
2019-04-04T01:16:52.285Z,8.97
2019-04-04T01:19:21.195Z,8.91
2019-04-04T01:21:53.035Z,9.14
2019-04-04T01:24:20.382Z,9.40
2019-04-04T01:26:49.148Z,9.26
2019-04-04T01:29:17.902Z,9.35
2019-04-04T01:31:46.683Z,9.58
2019-04-04T01:34:15.419Z,9.56
2019-04-04T01:36:44.138Z,9.81
2019-04-04T01:39:12.930Z,9.79
2019-04-04T01:41:43.578Z,9.65
2019-04-04T01:44:12.221Z,9.83
2019-04-04T01:46:41.864Z,9.82
2019-04-04T01:49:10.507Z,10.12
2019-04-04T01:51:39.151Z,9.85
2019-04-04T01:54:07.867Z,9.35
2019-04-04T01:56:37.054Z,9.31
2019-04-04T01:59:07.509Z,9.16
2019-04-04T02:01:36.354Z,9.08
2019-04-04T02:04:04.999Z,9.24
2019-04-04T02:06:33.580Z,9.31
2019-04-04T02:09:02.820Z,9.36
2019-04-04T02:11:32.393Z,9.54
2019-04-04T02:14:05.108Z,9.42
2019-04-04T02:16:33.717Z,8.91
2019-04-04T02:19:02.461Z,8.85
2019-04-04T02:21:31.090Z,9.06
2019-04-04T02:24:01.660Z,8.89
2019-04-04T02:26:30.660Z,8.95
2019-04-04T02:29:01.014Z,8.95
2019-04-04T02:31:31.310Z,9.03
2019-04-04T02:34:05.339Z,9.48
2019-04-04T02:36:33.922Z,9.51
2019-04-04T02:39:11.152Z,9.03
2019-04-04T02:41:39.815Z,9.09
2019-04-04T02:44:08.773Z,8.87
2019-04-04T02:46:38.610Z,9.04
2019-04-04T02:49:07.259Z,9.39
2019-04-04T02:51:40.158Z,9.30
2019-04-04T02:54:06.324Z,9.59
2019-04-04T02:56:36.104Z,8.95
2019-04-04T02:59:06.433Z,8.97
2019-04-04T03:01:35.119Z,8.67
2019-04-04T03:04:03.857Z,8.79
2019-04-04T03:06:32.491Z,8.57
2019-04-04T03:09:01.002Z,8.43
2019-04-04T03:11:29.651Z,8.26
2019-04-04T03:13:58.290Z,8.26
2019-04-04T03:16:26.986Z,8.37
2019-04-04T03:18:56.815Z,8.44
2019-04-04T03:21:25.458Z,8.65
2019-04-04T03:23:53.990Z,8.62
2019-04-04T03:26:22.633Z,8.41
2019-04-04T03:28:52.753Z,8.43
2019-04-04T03:31:21.446Z,8.37
2019-04-04T03:33:50.103Z,8.70
2019-04-04T03:36:18.744Z,8.81
2019-04-04T03:38:47.601Z,8.79
2019-04-04T03:41:16.091Z,8.53
2019-04-04T03:43:48.096Z,8.48
2019-04-04T03:46:15.073Z,7.95
2019-04-04T03:48:43.789Z,7.84
2019-04-04T03:51:15.240Z,8.22
2019-04-04T03:53:51.440Z,8.45
2019-04-04T03:56:20.102Z,8.57
2019-04-04T03:58:48.667Z,7.95
2019-04-04T04:01:17.354Z,7.82
2019-04-04T04:03:46.003Z,7.62
2019-04-04T04:06:14.666Z,7.56
2019-04-04T04:08:43.339Z,7.65
2019-04-04T04:11:11.991Z,7.61
2019-04-04T04:13:40.634Z,7.54
2019-04-04T04:16:09.241Z,7.76
2019-04-04T04:18:38.170Z,7.61
2019-04-04T04:21:09.716Z,7.91
2019-04-04T04:23:37.198Z,7.59
2019-04-04T04:26:09.500Z,7.47
2019-04-04T04:28:36.208Z,7.32
2019-04-04T04:31:04.862Z,7.36
2019-04-04T04:33:33.441Z,7.47
2019-04-04T04:36:02.074Z,7.38
2019-04-04T04:38:30.831Z,7.88
2019-04-04T04:41:00.937Z,8.13
2019-04-04T04:43:32.419Z,8.08
2019-04-04T04:45:59.993Z,8.95
2019-04-04T04:48:31.836Z,9.35
2019-04-04T04:50:58.928Z,9.58
2019-04-04T04:53:27.474Z,10.10
2019-04-04T04:55:59.481Z,10.20
2019-04-04T04:58:26.490Z,10.12
2019-04-04T05:00:55.109Z,10.57
2019-04-04T05:03:24.268Z,10.04
2019-04-04T05:05:53.593Z,9.92
2019-04-04T05:08:22.448Z,9.87
2019-04-04T05:10:51.033Z,8.82
2019-04-04T05:13:19.691Z,8.61
2019-04-04T05:15:48.376Z,8.47
2019-04-04T05:18:17.165Z,8.32
2019-04-04T05:20:45.808Z,8.66
2019-04-04T05:23:15.605Z,8.62
2019-04-04T05:25:53.841Z,8.53
2019-04-04T05:28:15.359Z,8.27
2019-04-04T05:30:46.839Z,8.35
2019-04-04T05:33:14.567Z,8.72
2019-04-04T05:35:43.221Z,8.43
2019-04-04T05:38:12.468Z,8.66
2019-04-04T05:40:41.880Z,8.53
2019-04-04T05:43:10.940Z,9.20
2019-04-04T05:45:39.775Z,9.13
2019-04-04T05:48:08.339Z,8.98
2019-04-04T05:50:37.102Z,8.91
2019-04-04T05:53:06.014Z,9.51
2019-04-04T05:55:35.692Z,9.45
2019-04-04T05:58:04.415Z,9.17
2019-04-04T06:00:34.172Z,9.18
2019-04-04T06:03:02.885Z,9.22
2019-04-04T06:05:31.886Z,9.17
2019-04-04T06:08:01.069Z,9.43
2019-04-04T06:10:29.749Z,9.36
2019-04-04T06:12:58.432Z,9.22
2019-04-04T06:15:27.503Z,9.51
2019-04-04T06:17:56.095Z,9.37
2019-04-04T06:20:24.745Z,9.33
2019-04-04T06:22:53.481Z,9.43
2019-04-04T06:25:22.038Z,9.72
2019-04-04T06:27:50.701Z,9.66
2019-04-04T06:30:20.151Z,9.58
2019-04-04T06:32:49.279Z,9.72
2019-04-04T06:35:17.922Z,9.86
2019-04-04T06:37:46.641Z,9.63
2019-04-04T06:40:15.712Z,9.56
2019-04-04T06:42:46.011Z,9.88
2019-04-04T06:45:16.353Z,10.15
2019-04-04T06:47:45.037Z,9.87
2019-04-04T06:50:14.700Z,9.88
2019-04-04T06:52:43.381Z,9.90
2019-04-04T06:55:12.340Z,9.84
2019-04-04T06:57:40.997Z,9.75
2019-04-04T07:00:10.494Z,9.78
2019-04-04T07:02:39.179Z,9.91
2019-04-04T07:05:10.760Z,9.75
2019-04-04T07:07:43.169Z,10.17
2019-04-04T07:10:11.067Z,9.80
2019-04-04T07:12:39.543Z,9.68
2019-04-04T07:15:12.447Z,9.79
2019-04-04T07:17:41.307Z,9.90
2019-04-04T07:20:11.595Z,9.95
2019-04-04T07:22:40.276Z,10.00
2019-04-04T07:25:09.190Z,10.32
2019-04-04T07:27:45.330Z,10.65
2019-04-04T07:30:15.494Z,10.83
2019-04-04T07:32:44.544Z,10.83
2019-04-04T07:35:16.850Z,10.30
2019-04-04T07:37:45.623Z,10.26
2019-04-04T07:40:14.495Z,10.37
2019-04-04T07:42:47.906Z,10.66
2019-04-04T07:45:15.326Z,10.84
2019-04-04T07:47:46.678Z,10.85
2019-04-04T07:50:14.600Z,10.97
2019-04-04T07:52:43.240Z,11.15
2019-04-04T07:55:12.149Z,11.54
2019-04-04T07:57:40.831Z,11.41
2019-04-04T08:00:10.789Z,11.51
2019-04-04T08:02:39.471Z,11.48
2019-04-04T08:05:09.427Z,11.91
2019-04-04T08:07:38.080Z,11.79
2019-04-04T08:10:20.080Z,12.20
2019-04-04T08:12:38.540Z,12.15
2019-04-04T08:15:08.339Z,11.79
2019-04-04T08:17:37.461Z,12.05
2019-04-04T08:20:06.813Z,12.59
2019-04-04T08:22:35.470Z,13.04
2019-04-04T08:25:05.248Z,13.51
2019-04-04T08:27:33.836Z,13.85
2019-04-04T08:30:05.282Z,13.64
2019-04-04T08:32:36.611Z,13.68
2019-04-04T08:35:08.311Z,14.19
2019-04-04T08:37:39.837Z,14.16
2019-04-04T08:40:10.615Z,14.13
2019-04-04T08:42:39.306Z,13.82
2019-04-04T08:45:09.426Z,14.75
2019-04-04T08:47:38.136Z,14.89
2019-04-04T08:50:10.306Z,15.66
2019-04-04T08:52:38.938Z,15.75
2019-04-04T08:55:08.456Z,16.67
2019-04-04T08:57:37.120Z,16.19
2019-04-04T09:00:08.355Z,15.75
2019-04-04T09:02:38.796Z,16.29
2019-04-04T09:05:12.234Z,16.23
2019-04-04T09:07:43.458Z,16.29
2019-04-04T09:10:13.471Z,15.01
2019-04-04T09:12:44.929Z,16.40
2019-04-04T09:15:13.518Z,16.08
2019-04-04T09:17:43.874Z,15.93
2019-04-04T09:20:13.285Z,14.83
2019-04-04T09:22:41.954Z,15.30
2019-04-04T09:25:12.841Z,15.46
2019-04-04T09:27:42.485Z,16.16
2019-04-04T09:30:12.187Z,15.99
2019-04-04T09:32:41.351Z,15.33
2019-04-04T09:35:10.394Z,16.51
2019-04-04T09:37:39.042Z,16.86
2019-04-04T09:40:09.504Z,17.30
2019-04-04T09:42:38.163Z,16.88
2019-04-04T09:45:09.267Z,16.86
2019-04-04T09:47:38.356Z,16.54
2019-04-04T09:50:09.281Z,16.08
2019-04-04T09:52:37.917Z,16.40
2019-04-04T09:55:08.924Z,16.48
2019-04-04T09:57:37.578Z,16.88
2019-04-04T10:00:09.146Z,16.48
2019-04-04T10:02:37.876Z,15.62
2019-04-04T10:05:08.224Z,16.43
2019-04-04T10:07:37.131Z,17.13
2019-04-04T10:10:10.968Z,17.54
2019-04-04T10:12:40.673Z,16.73
2019-04-04T10:15:09.810Z,16.27
2019-04-04T10:17:38.544Z,16.38
2019-04-04T10:20:07.714Z,16.83
2019-04-04T10:22:36.388Z,17.38
2019-04-04T10:25:20.907Z,17.56
2019-04-04T10:30:51.666Z,17.91
2019-04-04T10:33:20.374Z,17.30
2019-04-04T10:35:48.890Z,16.85
2019-04-04T10:38:17.853Z,17.00
2019-04-04T10:40:46.568Z,17.51
2019-04-04T10:43:15.238Z,18.16
2019-04-04T10:45:44.104Z,18.16
2019-04-04T10:48:13.936Z,16.79
2019-04-04T10:50:42.563Z,16.85
2019-04-04T10:53:12.712Z,18.04
2019-04-04T10:55:41.372Z,17.93
2019-04-04T10:58:10.589Z,18.09
2019-04-04T11:00:39.249Z,17.97
2019-04-04T11:03:10.803Z,17.97
2019-04-04T11:05:39.372Z,18.07
2019-04-04T11:08:08.085Z,17.60
2019-04-04T11:10:36.741Z,17.60
2019-04-04T11:13:05.511Z,17.65
2019-04-04T11:15:34.176Z,17.43
2019-04-04T11:18:02.881Z,16.41
2019-04-04T11:20:31.476Z,16.78
2019-04-04T11:23:00.201Z,16.91
2019-04-04T11:25:30.371Z,16.75
2019-04-04T11:27:59.027Z,17.01
2019-04-04T11:30:28.786Z,17.60
2019-04-04T11:32:57.439Z,17.72
2019-04-04T11:35:26.098Z,18.22
2019-04-04T11:37:54.820Z,18.22
2019-04-04T11:40:23.417Z,17.73
2019-04-04T11:42:52.076Z,17.92
2019-04-04T11:45:20.738Z,17.70
2019-04-04T11:47:56.984Z,18.11
2019-04-04T11:50:25.692Z,18.11
2019-04-04T11:52:55.812Z,17.70
2019-04-04T11:55:25.928Z,17.48
2019-04-04T11:58:19.905Z,17.47
2019-04-04T12:00:39.967Z,17.32
2019-04-04T12:03:10.406Z,17.60
2019-04-04T12:05:48.339Z,17.79
2019-04-04T12:08:17.286Z,17.09
2019-04-04T12:10:47.400Z,17.18
2019-04-04T12:13:16.089Z,17.35
2019-04-04T12:15:44.786Z,17.23
2019-04-04T12:18:13.475Z,17.58
2019-04-04T12:20:43.549Z,17.47
2019-04-04T12:23:17.697Z,17.27
2019-04-04T12:25:46.955Z,17.06
2019-04-04T12:28:15.629Z,16.83
2019-04-04T12:30:44.372Z,16.76
2019-04-04T12:33:13.136Z,16.59
2019-04-04T12:35:41.844Z,16.41
2019-04-04T12:38:10.731Z,16.73
2019-04-04T12:40:39.402Z,16.67
2019-04-04T12:43:08.122Z,16.78
2019-04-04T12:45:36.849Z,17.34
2019-04-04T12:48:05.475Z,17.75
2019-04-04T12:50:34.636Z,17.86
2019-04-04T12:53:03.489Z,17.75
2019-04-04T12:55:32.131Z,17.34
2019-04-04T12:58:00.772Z,17.08
2019-04-04T13:00:29.459Z,17.25
2019-04-04T13:02:58.065Z,17.54
2019-04-04T13:05:26.710Z,18.39
2019-04-04T13:07:55.296Z,18.39
2019-04-04T13:10:32.965Z,18.81
2019-04-04T13:12:55.302Z,18.98
2019-04-04T13:15:24.009Z,18.78
2019-04-04T13:17:57.855Z,18.48
2019-04-04T13:20:26.494Z,18.08
2019-04-04T13:22:55.315Z,18.08
2019-04-04T13:25:24.076Z,17.58
2019-04-04T13:27:52.647Z,18.12
2019-04-04T13:30:21.894Z,18.15
2019-04-04T13:32:50.539Z,17.28
2019-04-04T13:35:19.178Z,17.28
2019-04-04T13:37:47.905Z,17.46
2019-04-04T13:40:16.679Z,17.18
2019-04-04T13:42:45.430Z,17.43
2019-04-04T13:45:15.543Z,17.42
2019-04-04T13:47:44.184Z,17.43
2019-04-04T13:50:13.380Z,17.42
2019-04-04T13:52:42.020Z,17.25
2019-04-04T13:55:10.671Z,17.26
2019-04-04T13:57:41.030Z,17.58
2019-04-04T14:00:10.979Z,17.97
2019-04-04T14:02:39.625Z,17.99
2019-04-04T14:05:13.977Z,17.91
2019-04-04T14:07:43.686Z,18.09
2019-04-04T14:10:16.852Z,18.06
2019-04-04T14:12:44.323Z,18.06
2019-04-04T14:15:12.984Z,17.57
2019-04-04T14:17:43.900Z,17.26
2019-04-04T14:20:14.678Z,17.29
2019-04-04T14:22:43.329Z,17.59
2019-04-04T14:25:12.254Z,17.60
2019-04-04T14:27:43.528Z,17.50
2019-04-04T14:30:15.275Z,17.50
2019-04-04T14:32:44.097Z,17.57
2019-04-04T14:35:12.735Z,17.83
2019-04-04T14:37:41.235Z,17.61
2019-04-04T14:40:10.796Z,17.51
2019-04-04T14:42:39.540Z,17.30
2019-04-04T14:45:09.913Z,17.18
2019-04-04T14:47:38.636Z,17.03
2019-04-04T14:50:10.436Z,16.78
2019-04-04T14:52:39.749Z,16.86
2019-04-04T14:55:09.113Z,16.83
2019-04-04T14:57:37.767Z,16.83
2019-04-04T15:00:09.653Z,16.81
2019-04-04T15:02:38.400Z,17.06
2019-04-04T15:05:07.461Z,17.16
2019-04-04T15:07:36.116Z,17.07
2019-04-04T15:10:05.334Z,17.04
2019-04-04T15:12:33.922Z,17.21
2019-04-04T15:15:04.330Z,17.44
2019-04-04T15:17:32.981Z,17.03
2019-04-04T15:20:01.629Z,17.03
2019-04-04T15:22:31.911Z,17.00
2019-04-04T15:25:00.752Z,16.94
2019-04-04T15:27:29.535Z,16.86
2019-04-04T15:29:58.655Z,17.01
2019-04-04T15:32:27.301Z,17.26
2019-04-04T15:34:57.128Z,16.97
2019-04-04T15:37:25.828Z,16.81
2019-04-04T15:39:55.349Z,16.79
2019-04-04T15:42:23.997Z,16.88
2019-04-04T15:44:52.654Z,16.72
2019-04-04T15:47:21.927Z,16.58
2019-04-04T15:49:50.402Z,16.45
2019-04-04T15:52:19.069Z,16.47
2019-04-04T15:54:47.760Z,16.48
2019-04-04T15:57:16.431Z,16.42
2019-04-04T15:59:45.019Z,16.35
2019-04-04T16:02:13.706Z,16.15
2019-04-04T16:04:42.356Z,16.07
2019-04-04T16:07:11.671Z,16.03
2019-04-04T16:09:40.331Z,16.02
2019-04-04T16:12:08.940Z,15.96
2019-04-04T16:14:38.470Z,15.96
2019-04-04T16:17:07.789Z,15.83
2019-04-04T16:19:36.378Z,15.78
2019-04-04T16:22:06.679Z,15.78
2019-04-04T16:24:35.576Z,15.75
2019-04-04T16:27:04.517Z,15.83
2019-04-04T16:29:33.190Z,15.57
2019-04-04T16:32:01.980Z,15.57
2019-04-04T16:34:30.494Z,15.43
2019-04-04T16:36:59.135Z,15.34
2019-04-04T16:39:27.823Z,15.30
2019-04-04T16:42:02.461Z,15.30
2019-04-04T16:44:27.499Z,15.19
2019-04-04T16:46:56.710Z,15.15
2019-04-04T16:49:26.452Z,15.17
2019-04-04T16:51:55.131Z,15.04
2019-04-04T16:54:23.755Z,15.08
2019-04-04T16:56:52.496Z,14.94
2019-04-04T16:59:21.146Z,15.01
2019-04-04T17:01:50.263Z,14.91
2019-04-04T17:04:18.917Z,15.00
2019-04-04T17:06:47.608Z,14.91
2019-04-04T17:09:16.568Z,14.77
2019-04-04T17:11:45.220Z,14.67
2019-04-04T17:14:13.868Z,14.77
2019-04-04T17:16:42.565Z,14.61
2019-04-04T17:19:11.148Z,14.57
2019-04-04T17:21:39.733Z,14.54
2019-04-04T17:24:08.704Z,14.56
2019-04-04T17:26:37.283Z,14.51
2019-04-04T17:29:06.033Z,14.49
2019-04-04T17:31:34.717Z,14.57
2019-04-04T17:34:03.358Z,14.45
2019-04-04T17:36:32.096Z,14.41
2019-04-04T17:39:00.683Z,14.38
2019-04-04T17:41:29.336Z,14.35
2019-04-04T17:43:58.105Z,14.37
2019-04-04T17:46:26.756Z,14.30
2019-04-04T17:48:55.403Z,14.22
2019-04-04T17:51:24.069Z,14.33
2019-04-04T17:53:53.551Z,14.10
2019-04-04T17:56:22.466Z,14.06
2019-04-04T17:58:51.111Z,14.02
2019-04-04T18:01:19.762Z,14.14
2019-04-04T18:03:49.430Z,14.11
2019-04-04T18:06:19.234Z,14.06
2019-04-04T18:08:54.419Z,13.94
2019-04-04T18:11:23.087Z,14.00
2019-04-04T18:13:51.818Z,14.33
2019-04-04T18:16:22.969Z,14.28
2019-04-04T18:18:51.641Z,14.12
2019-04-04T18:21:20.333Z,14.09
2019-04-04T18:23:48.973Z,14.02
2019-04-04T18:26:17.632Z,14.04
2019-04-04T18:28:46.330Z,14.03
2019-04-04T18:31:14.984Z,14.28
2019-04-04T18:33:43.650Z,13.87
2019-04-04T18:36:12.902Z,13.91
2019-04-04T18:38:41.677Z,13.88
2019-04-04T18:41:10.396Z,13.68
2019-04-04T18:43:39.042Z,13.69
2019-04-04T18:46:08.016Z,13.72
2019-04-04T18:48:36.595Z,13.63
2019-04-04T18:51:05.350Z,13.69
2019-04-04T18:53:34.108Z,13.70
2019-04-04T18:56:02.756Z,13.74
2019-04-04T18:58:31.339Z,13.83
2019-04-04T19:01:00.017Z,13.76
2019-04-04T19:03:29.878Z,13.81
2019-04-04T19:05:58.694Z,14.01
2019-04-04T19:08:27.440Z,13.81
2019-04-04T19:10:56.026Z,13.58
2019-04-04T19:13:25.725Z,13.45
2019-04-04T19:15:54.415Z,13.21
2019-04-04T19:18:24.500Z,13.02
2019-04-04T19:24:15.886Z,12.92
2019-04-04T19:26:48.446Z,12.76
2019-04-04T19:29:18.542Z,12.75
2019-04-04T19:31:47.194Z,12.77
2019-04-04T19:34:15.888Z,12.65
2019-04-04T19:36:44.617Z,12.62
2019-04-04T19:39:19.278Z,12.61
2019-04-04T19:41:51.097Z,12.58
2019-04-04T19:44:19.746Z,12.52
2019-04-04T19:46:48.406Z,12.42
2019-04-04T19:49:17.036Z,12.40
2019-04-04T19:51:45.688Z,12.44
2019-04-04T19:54:14.336Z,12.41
2019-04-04T19:56:44.829Z,12.48
2019-04-04T19:59:50.489Z,12.41
2019-04-04T20:02:20.229Z,12.26
2019-04-04T20:04:49.217Z,12.25
2019-04-04T20:07:19.144Z,12.29
2019-04-04T20:09:47.755Z,12.22
2019-04-04T20:12:16.436Z,12.16
2019-04-04T20:14:46.595Z,12.06
2019-04-04T20:17:15.255Z,12.05
2019-04-04T20:19:47.637Z,11.91
2019-04-04T20:22:16.368Z,11.92
2019-04-04T20:24:45.612Z,11.87
2019-04-04T20:27:14.576Z,11.89
2019-04-04T20:29:43.629Z,11.87
2019-04-04T20:32:12.337Z,11.80
2019-04-04T20:34:40.841Z,11.72
2019-04-04T20:37:11.433Z,11.78
2019-04-04T20:39:40.082Z,11.71
2019-04-04T20:42:08.743Z,11.69
2019-04-04T20:44:38.804Z,11.69
2019-04-04T20:47:07.386Z,11.63
2019-04-04T20:49:36.075Z,11.66
2019-04-04T20:52:05.050Z,11.60
2019-04-04T20:54:33.700Z,11.62
2019-04-04T20:57:02.399Z,11.65
2019-04-04T20:59:32.197Z,11.64
2019-04-04T21:02:00.844Z,11.56
2019-04-04T21:04:29.394Z,11.57
2019-04-04T21:06:58.035Z,11.50
2019-04-04T21:09:27.971Z,11.55
2019-04-04T21:11:56.668Z,11.51
2019-04-04T21:14:26.297Z,11.57
2019-04-04T21:16:54.942Z,11.59
2019-04-04T21:19:23.983Z,11.55
2019-04-04T21:21:52.657Z,11.58
2019-04-04T21:24:21.218Z,11.58
2019-04-04T21:26:50.466Z,11.75
2019-04-04T21:29:19.711Z,11.74
2019-04-04T21:31:48.365Z,11.71
2019-04-04T21:34:18.553Z,11.57
2019-04-04T21:36:47.134Z,11.60
2019-04-04T21:39:15.815Z,11.53
2019-04-04T21:41:44.465Z,11.58
2019-04-04T21:44:13.106Z,11.57
2019-04-04T21:46:41.674Z,11.61
2019-04-04T21:49:10.404Z,11.54
2019-04-04T21:51:38.954Z,11.50
2019-04-04T21:54:07.591Z,11.58
2019-04-04T21:56:36.286Z,11.52
2019-04-04T21:59:06.338Z,11.55
2019-04-04T22:01:35.082Z,11.54
2019-04-04T22:04:03.780Z,11.49
2019-04-04T22:06:32.418Z,11.48
2019-04-04T22:09:01.059Z,11.44
2019-04-04T22:11:29.681Z,11.45
2019-04-04T22:13:58.332Z,11.48
2019-04-04T22:16:26.907Z,11.50
2019-04-04T22:18:55.519Z,11.59
2019-04-04T22:21:24.101Z,11.57
2019-04-04T22:23:52.751Z,11.57
2019-04-04T22:26:21.436Z,11.55
2019-04-04T22:28:50.074Z,11.62
2019-04-04T22:31:18.721Z,11.56
2019-04-04T22:33:47.328Z,11.39
2019-04-04T22:36:15.980Z,11.38
2019-04-04T22:38:44.637Z,11.29
2019-04-04T22:41:14.215Z,11.32
2019-04-04T22:43:42.724Z,11.25
2019-04-04T22:46:11.382Z,11.23
2019-04-04T22:48:40.041Z,11.17
2019-04-04T22:51:08.692Z,11.16
2019-04-04T22:53:37.281Z,11.19
2019-04-04T22:56:05.923Z,11.11
2019-04-04T22:58:34.576Z,11.04
2019-04-04T23:01:03.269Z,11.00
2019-04-04T23:03:31.919Z,11.05
2019-04-04T23:06:00.568Z,10.93
2019-04-04T23:08:29.308Z,10.96
2019-04-04T23:10:57.879Z,10.96
2019-04-04T23:13:26.522Z,10.92
2019-04-04T23:15:55.222Z,10.93
2019-04-04T23:18:23.724Z,10.96
2019-04-04T23:20:52.380Z,10.94
2019-04-04T23:23:21.078Z,10.95
2019-04-04T23:25:49.980Z,10.99
2019-04-04T23:28:18.487Z,10.90
2019-04-04T23:30:47.168Z,11.00
2019-04-04T23:33:15.847Z,11.01
2019-04-04T23:35:44.465Z,10.87
2019-04-04T23:38:13.334Z,10.89
2019-04-04T23:40:42.308Z,10.97
2019-04-04T23:43:10.954Z,11.05
2019-04-04T23:45:39.614Z,11.14
2019-04-04T23:48:08.259Z,11.16
2019-04-04T23:50:36.901Z,11.16
2019-04-04T23:53:05.527Z,11.11
2019-04-04T23:55:34.109Z,11.25
2019-04-04T23:58:02.757Z,11.22
